createdAt,value
2022-08-03T00:01:25.675Z,17.30
2022-08-03T00:03:52.331Z,17.30
2022-08-03T00:06:21.095Z,17.30
2022-08-03T00:08:47.710Z,17.30
2022-08-03T00:11:14.480Z,17.20
2022-08-03T00:13:41.106Z,17.20
2022-08-03T00:16:07.878Z,17.10
2022-08-03T00:18:34.521Z,17.10
2022-08-03T00:21:01.159Z,16.90
2022-08-03T00:23:33.118Z,16.90
2022-08-03T00:26:14.435Z,17.00
2022-08-03T00:28:41.247Z,17.00
2022-08-03T00:31:08.295Z,16.90
2022-08-03T00:33:58.848Z,16.90
2022-08-03T00:36:28.471Z,16.80
2022-08-03T00:38:55.745Z,16.70
2022-08-03T00:41:22.485Z,16.60
2022-08-03T00:43:49.478Z,16.70
2022-08-03T00:46:21.052Z,16.60
2022-08-03T00:48:52.452Z,16.50
2022-08-03T00:51:21.131Z,16.50
2022-08-03T00:53:48.129Z,16.50
2022-08-03T00:56:16.048Z,16.50
2022-08-03T00:58:44.810Z,16.60
2022-08-03T01:01:12.485Z,16.60
2022-08-03T01:03:39.522Z,16.50
2022-08-03T01:06:17.663Z,16.40
2022-08-03T01:08:54.918Z,16.20
2022-08-03T01:12:00.968Z,16.30
2022-08-03T01:14:48.191Z,16.30
2022-08-03T01:17:29.962Z,16.40
2022-08-03T01:20:02.513Z,16.30
2022-08-03T01:22:29.102Z,16.40
2022-08-03T01:25:29.493Z,16.30
2022-08-03T01:28:17.198Z,16.10
2022-08-03T01:30:45.754Z,16.00
2022-08-03T01:33:28.289Z,16.10
2022-08-03T01:36:05.086Z,16.10
2022-08-03T01:38:41.947Z,16.10
2022-08-03T01:41:13.636Z,16.00
2022-08-03T01:44:26.593Z,16.00
2022-08-03T01:46:32.839Z,15.90
2022-08-03T01:49:01.090Z,15.90
2022-08-03T01:52:03.702Z,15.90
2022-08-03T01:54:27.079Z,15.90
2022-08-03T01:56:56.623Z,15.90
2022-08-03T01:59:25.794Z,15.80
2022-08-03T02:02:28.127Z,15.80
2022-08-03T02:04:43.642Z,15.80
2022-08-03T02:07:11.250Z,15.80
2022-08-03T02:09:40.214Z,15.80
2022-08-03T02:12:11.656Z,15.80
2022-08-03T02:14:40.674Z,15.80
2022-08-03T02:17:08.163Z,15.70
2022-08-03T02:19:36.689Z,15.70
2022-08-03T02:22:08.291Z,15.70
2022-08-03T02:24:35.014Z,15.80
2022-08-03T02:27:05.697Z,15.60
2022-08-03T02:29:39.653Z,15.60
2022-08-03T02:32:12.361Z,15.70
2022-08-03T02:34:41.936Z,15.70
2022-08-03T02:37:10.213Z,15.60
2022-08-03T02:39:39.263Z,15.60
2022-08-03T02:42:08.604Z,15.50
2022-08-03T02:44:37.001Z,15.60
2022-08-03T02:47:11.202Z,15.50
2022-08-03T02:49:50.644Z,15.50
2022-08-03T02:52:21.318Z,15.50
2022-08-03T02:54:51.005Z,15.50
2022-08-03T02:57:19.842Z,15.40
2022-08-03T02:59:47.175Z,15.40
2022-08-03T03:02:16.293Z,15.30
2022-08-03T03:05:50.652Z,15.10
2022-08-03T03:07:37.255Z,15.10
2022-08-03T03:10:18.911Z,15.00
2022-08-03T03:12:46.774Z,14.90
2022-08-03T03:15:13.481Z,15.00
2022-08-03T03:17:43.012Z,15.10
2022-08-03T03:20:10.526Z,15.10
2022-08-03T03:22:38.486Z,15.10
2022-08-03T03:25:07.398Z,15.10
2022-08-03T03:27:36.628Z,15.00
2022-08-03T03:30:05.665Z,14.90
2022-08-03T03:32:32.655Z,15.00
2022-08-03T03:35:00.056Z,15.00
2022-08-03T03:37:27.153Z,15.10
2022-08-03T03:39:54.882Z,15.10
2022-08-03T03:42:22.014Z,15.10
2022-08-03T03:44:48.952Z,15.00
2022-08-03T03:47:15.670Z,15.00
2022-08-03T03:49:44.115Z,15.00
2022-08-03T03:52:11.301Z,15.00
2022-08-03T03:54:45.355Z,15.00
2022-08-03T03:57:13.105Z,15.10
2022-08-03T03:59:44.444Z,15.00
2022-08-03T04:02:12.307Z,15.00
2022-08-03T04:04:58.034Z,15.00
2022-08-03T04:07:46.030Z,14.90
2022-08-03T04:10:45.766Z,14.90
2022-08-03T04:13:15.836Z,14.90
2022-08-03T04:15:42.824Z,14.70
2022-08-03T04:18:14.237Z,14.80
2022-08-03T04:20:43.041Z,14.80
2022-08-03T04:23:14.214Z,14.80
2022-08-03T04:25:43.809Z,14.70
2022-08-03T04:28:30.636Z,14.90
2022-08-03T04:31:03.483Z,14.90
2022-08-03T04:33:34.935Z,15.00
2022-08-03T04:36:06.548Z,14.90
2022-08-03T04:38:39.795Z,14.90
2022-08-03T04:41:07.944Z,14.80
2022-08-03T04:43:35.537Z,14.80
2022-08-03T04:46:03.084Z,15.00
2022-08-03T04:48:30.135Z,15.10
2022-08-03T04:50:57.134Z,15.10
2022-08-03T04:53:23.902Z,15.30
2022-08-03T04:55:50.542Z,15.30
2022-08-03T04:58:17.231Z,15.40
2022-08-03T05:00:45.466Z,15.40
2022-08-03T05:03:20.187Z,15.40
2022-08-03T05:06:09.816Z,15.30
2022-08-03T05:08:47.159Z,15.30
2022-08-03T05:11:16.396Z,15.40
2022-08-03T05:13:43.844Z,15.40
2022-08-03T05:16:10.593Z,15.50
2022-08-03T05:18:37.439Z,15.60
2022-08-03T05:21:05.040Z,15.70
2022-08-03T05:23:31.948Z,15.70
2022-08-03T05:25:58.597Z,15.90
2022-08-03T05:28:25.272Z,16.00
2022-08-03T05:30:52.027Z,16.00
2022-08-03T05:33:18.679Z,16.00
2022-08-03T05:36:00.461Z,16.00
2022-08-03T05:38:34.265Z,16.10
2022-08-03T05:41:22.326Z,16.50
2022-08-03T05:43:53.887Z,17.10
2022-08-03T05:46:21.754Z,17.70
2022-08-03T05:48:48.470Z,18.00
2022-08-03T05:51:16.739Z,18.40
2022-08-03T05:53:44.380Z,19.10
2022-08-03T05:56:13.800Z,19.80
2022-08-03T05:58:43.450Z,20.70
2022-08-03T06:01:10.222Z,21.30
2022-08-03T06:03:36.971Z,22.10
2022-08-03T06:06:03.757Z,22.40
2022-08-03T06:08:30.394Z,23.30
2022-08-03T06:10:57.028Z,23.80
2022-08-03T06:13:23.630Z,24.60
2022-08-03T06:15:50.358Z,24.80
2022-08-03T06:18:17.012Z,25.10
2022-08-03T06:20:43.670Z,25.80
2022-08-03T06:23:16.220Z,26.50
2022-08-03T06:25:44.766Z,26.60
2022-08-03T06:28:51.178Z,26.70
2022-08-03T06:31:06.566Z,26.60
2022-08-03T06:34:30.680Z,26.90
2022-08-03T06:36:20.750Z,27.20
2022-08-03T06:38:47.375Z,27.70
2022-08-03T06:41:14.120Z,28.30
2022-08-03T06:44:03.201Z,27.70
2022-08-03T06:46:27.466Z,27.20
2022-08-03T06:48:54.950Z,27.10
2022-08-03T06:51:21.601Z,27.20
2022-08-03T06:54:08.549Z,27.60
2022-08-03T06:56:35.227Z,27.50
2022-08-03T06:59:04.089Z,27.70
2022-08-03T07:01:30.839Z,27.70
2022-08-03T07:03:57.490Z,27.60
2022-08-03T07:06:24.691Z,28.00
2022-08-03T07:08:53.610Z,28.40
2022-08-03T07:11:21.171Z,29.30
2022-08-03T07:13:47.807Z,29.70
2022-08-03T07:16:14.493Z,30.90
2022-08-03T07:18:41.184Z,30.90
2022-08-03T07:21:10.952Z,31.40
2022-08-03T07:23:37.689Z,31.90
2022-08-03T07:26:04.743Z,30.90
2022-08-03T07:28:32.453Z,30.40
2022-08-03T07:30:59.467Z,30.20
2022-08-03T07:33:26.335Z,30.10
2022-08-03T07:35:52.982Z,30.50
2022-08-03T07:38:21.186Z,31.00
2022-08-03T07:40:48.184Z,31.60
2022-08-03T07:43:14.834Z,32.30
2022-08-03T07:45:41.551Z,33.10
2022-08-03T07:48:12.184Z,33.90
2022-08-03T07:50:39.156Z,34.10
2022-08-03T07:53:05.889Z,34.40
2022-08-03T07:55:32.617Z,34.90
2022-08-03T07:58:07.698Z,35.10
2022-08-03T08:00:34.622Z,35.50
2022-08-03T08:03:01.792Z,34.90
2022-08-03T08:05:29.383Z,34.70
2022-08-03T08:07:56.245Z,35.50
2022-08-03T08:10:23.280Z,35.60
2022-08-03T08:12:50.423Z,35.90
2022-08-03T08:15:17.068Z,36.50
2022-08-03T08:17:55.681Z,36.40
2022-08-03T08:20:31.617Z,36.30
2022-08-03T08:23:01.854Z,36.80
2022-08-03T08:25:30.645Z,36.50
2022-08-03T08:28:29.459Z,37.20
2022-08-03T08:30:44.868Z,37.00
2022-08-03T08:33:22.806Z,37.10
2022-08-03T08:35:51.599Z,37.00
2022-08-03T08:38:18.273Z,37.20
2022-08-03T08:40:45.181Z,36.90
2022-08-03T08:43:11.833Z,37.60
2022-08-03T08:45:40.485Z,37.90
2022-08-03T08:48:09.399Z,38.10
2022-08-03T08:50:38.803Z,38.80
2022-08-03T08:53:17.682Z,39.60
2022-08-03T08:55:59.131Z,39.10
2022-08-03T08:58:29.687Z,38.90
2022-08-03T09:00:56.815Z,38.60
2022-08-03T09:03:30.346Z,38.70
2022-08-03T09:06:00.607Z,38.20
2022-08-03T09:08:28.431Z,38.60
2022-08-03T09:10:55.114Z,38.40
2022-08-03T09:13:23.182Z,38.30
2022-08-03T09:16:08.470Z,39.20
2022-08-03T09:18:35.089Z,39.00
2022-08-03T09:21:30.018Z,39.30
2022-08-03T09:24:02.925Z,39.80
2022-08-03T09:26:32.179Z,39.40
2022-08-03T09:29:04.898Z,40.20
2022-08-03T09:31:36.753Z,39.70
2022-08-03T09:34:06.070Z,39.40
2022-08-03T09:36:42.865Z,40.10
2022-08-03T09:39:37.506Z,40.30
2022-08-03T09:42:14.889Z,41.10
2022-08-03T09:44:48.487Z,41.10
2022-08-03T09:47:29.914Z,41.70
2022-08-03T09:50:16.510Z,42.00
2022-08-03T09:52:50.127Z,40.60
2022-08-03T09:56:34.218Z,41.40
2022-08-03T09:58:11.555Z,41.10
2022-08-03T10:01:00.250Z,40.30
2022-08-03T10:03:29.576Z,40.30
2022-08-03T10:05:59.805Z,40.80
2022-08-03T10:08:26.978Z,40.90
2022-08-03T10:10:58.571Z,41.30
2022-08-03T10:13:27.447Z,42.10
2022-08-03T10:16:22.239Z,41.80
2022-08-03T10:18:40.882Z,41.30
2022-08-03T10:21:16.729Z,41.50
2022-08-03T10:23:43.872Z,41.10
2022-08-03T10:26:16.176Z,41.40
2022-08-03T10:28:48.645Z,41.70
2022-08-03T10:31:18.148Z,41.40
2022-08-03T10:33:52.827Z,41.50
2022-08-03T10:36:24.341Z,41.30
2022-08-03T10:38:53.090Z,41.90
2022-08-03T10:41:26.152Z,42.10
2022-08-03T10:44:09.609Z,41.80
2022-08-03T10:46:44.177Z,41.40
2022-08-03T10:49:14.859Z,40.90
2022-08-03T10:51:45.833Z,41.80
2022-08-03T10:55:03.499Z,42.10
2022-08-03T10:57:49.899Z,41.40
2022-08-03T11:00:22.375Z,41.80
2022-08-03T11:03:11.473Z,42.20
2022-08-03T11:05:43.253Z,41.70
2022-08-03T11:08:29.301Z,41.40
2022-08-03T11:11:01.811Z,42.40
2022-08-03T11:13:31.898Z,42.40
2022-08-03T11:16:03.945Z,42.20
2022-08-03T11:18:33.348Z,43.10
2022-08-03T11:21:00.687Z,43.00
2022-08-03T11:24:04.486Z,43.20
2022-08-03T11:26:30.838Z,43.00
2022-08-03T11:29:27.721Z,42.80
2022-08-03T11:31:54.496Z,43.00
2022-08-03T11:34:21.159Z,43.00
2022-08-03T11:37:26.320Z,42.60
2022-08-03T11:39:57.113Z,43.10
2022-08-03T11:42:27.500Z,42.50
2022-08-03T11:44:56.715Z,42.50
2022-08-03T11:47:26.947Z,42.60
2022-08-03T11:50:02.063Z,43.20
2022-08-03T11:52:35.733Z,42.50
2022-08-03T11:55:02.547Z,42.60
2022-08-03T11:59:10.891Z,42.40
2022-08-03T12:00:31.855Z,43.10
2022-08-03T12:03:07.489Z,43.10
2022-08-03T12:05:51.212Z,42.70
2022-08-03T12:08:27.673Z,42.30
2022-08-03T12:10:56.400Z,42.20
2022-08-03T12:14:45.802Z,41.90
2022-08-03T12:16:19.555Z,41.40
2022-08-03T12:18:54.778Z,41.30
2022-08-03T12:21:24.602Z,41.10
2022-08-03T12:23:51.474Z,40.80
2022-08-03T12:26:18.268Z,40.50
2022-08-03T12:28:50.090Z,40.00
2022-08-03T12:31:17.368Z,40.50
2022-08-03T12:33:59.375Z,41.10
2022-08-03T12:36:27.482Z,41.30
2022-08-03T12:39:00.497Z,40.90
2022-08-03T12:41:36.355Z,40.70
2022-08-03T12:44:08.537Z,40.50
2022-08-03T12:46:37.864Z,40.00
2022-08-03T12:49:15.348Z,39.90
2022-08-03T12:51:47.786Z,39.20
2022-08-03T12:54:26.046Z,39.40
2022-08-03T12:57:10.755Z,39.50
2022-08-03T12:59:53.109Z,38.60
2022-08-03T13:02:25.533Z,37.70
2022-08-03T13:04:54.250Z,37.00
2022-08-03T13:07:22.492Z,36.40
2022-08-03T13:09:54.660Z,36.60
2022-08-03T13:12:22.234Z,36.80
2022-08-03T13:14:55.396Z,37.00
2022-08-03T13:19:37.040Z,37.50
2022-08-03T13:22:18.514Z,37.70
2022-08-03T13:24:46.553Z,37.20
2022-08-03T13:28:04.379Z,36.90
2022-08-03T13:30:00.841Z,36.50
2022-08-03T13:32:27.538Z,36.50
2022-08-03T13:34:54.208Z,36.60
2022-08-03T13:37:21.331Z,36.40
2022-08-03T13:39:58.675Z,36.10
2022-08-03T13:42:29.372Z,35.80
2022-08-03T13:44:56.117Z,35.70
2022-08-03T13:47:23.138Z,35.90
2022-08-03T13:49:59.678Z,36.10
2022-08-03T13:52:36.159Z,36.40
2022-08-03T13:55:05.351Z,36.50
2022-08-03T13:58:05.034Z,36.50
2022-08-03T14:00:27.595Z,36.40
2022-08-03T14:03:06.533Z,36.20
2022-08-03T14:05:39.184Z,36.00
2022-08-03T14:08:06.964Z,35.70
2022-08-03T14:10:35.892Z,35.70
2022-08-03T14:13:03.386Z,35.10
2022-08-03T14:15:30.186Z,34.80
2022-08-03T14:17:58.796Z,34.80
2022-08-03T14:20:46.971Z,35.00
2022-08-03T14:23:15.544Z,35.00
2022-08-03T14:25:44.241Z,35.00
2022-08-03T14:28:23.871Z,35.20
2022-08-03T14:30:51.684Z,35.30
2022-08-03T14:33:20.203Z,35.30
2022-08-03T14:35:47.203Z,35.50
2022-08-03T14:38:13.966Z,35.40
2022-08-03T14:40:43.878Z,35.20
2022-08-03T14:43:11.178Z,34.90
2022-08-03T14:45:38.911Z,34.90
2022-08-03T14:50:29.394Z,34.80
2022-08-03T14:50:52.995Z,34.80
2022-08-03T14:53:20.133Z,34.60
2022-08-03T14:55:50.447Z,34.60
2022-08-03T14:58:20.818Z,34.80
2022-08-03T15:00:48.901Z,34.80
2022-08-03T15:03:17.093Z,34.60
2022-08-03T15:05:44.480Z,34.30
2022-08-03T15:08:11.308Z,34.10
2022-08-03T15:10:44.440Z,34.10
2022-08-03T15:13:12.863Z,34.10
2022-08-03T15:15:40.061Z,34.10
2022-08-03T15:18:07.364Z,34.00
2022-08-03T15:20:44.333Z,33.90
2022-08-03T15:23:12.478Z,33.90
2022-08-03T15:26:28.605Z,33.90
2022-08-03T15:28:25.808Z,33.80
2022-08-03T15:30:54.183Z,33.60
2022-08-03T15:33:20.828Z,33.50
2022-08-03T15:35:47.778Z,33.40
2022-08-03T15:38:16.601Z,33.50
2022-08-03T15:40:43.385Z,33.50
2022-08-03T15:43:10.148Z,33.70
2022-08-03T15:45:37.348Z,33.70
2022-08-03T15:48:05.415Z,33.80
2022-08-03T15:50:35.567Z,33.90
2022-08-03T15:53:05.503Z,34.00
2022-08-03T15:55:32.756Z,34.00
2022-08-03T15:59:11.353Z,33.90
2022-08-03T16:00:46.927Z,33.90
2022-08-03T16:03:13.680Z,33.80
2022-08-03T16:05:40.491Z,33.90
2022-08-03T16:08:13.221Z,33.80
2022-08-03T16:10:40.863Z,33.80
2022-08-03T16:13:07.947Z,33.70
2022-08-03T16:15:37.477Z,33.70
2022-08-03T16:18:08.798Z,33.70
2022-08-03T16:20:35.722Z,33.60
2022-08-03T16:23:11.362Z,33.60
2022-08-03T16:25:39.990Z,33.50
2022-08-03T16:28:13.007Z,33.50
2022-08-03T16:30:45.650Z,33.30
2022-08-03T16:33:16.907Z,33.30
2022-08-03T16:35:43.925Z,33.30
2022-08-03T16:38:15.228Z,33.20
2022-08-03T16:40:45.758Z,33.20
2022-08-03T16:43:18.526Z,33.10
2022-08-03T16:45:46.953Z,33.00
2022-08-03T16:48:15.171Z,32.90
2022-08-03T16:50:41.942Z,32.70
2022-08-03T16:53:16.396Z,32.60
2022-08-03T16:55:53.705Z,32.50
2022-08-03T16:58:41.875Z,32.60
2022-08-03T17:01:21.988Z,32.70
2022-08-03T17:04:02.087Z,32.50
2022-08-03T17:06:35.942Z,32.50
2022-08-03T17:09:10.553Z,32.40
2022-08-03T17:11:46.824Z,32.20
2022-08-03T17:14:28.238Z,32.00
2022-08-03T17:17:00.917Z,31.80
2022-08-03T17:19:30.849Z,31.60
2022-08-03T17:22:16.045Z,31.40
2022-08-03T17:24:49.817Z,31.20
2022-08-03T17:28:41.896Z,31.10
2022-08-03T17:30:13.314Z,31.10
2022-08-03T17:32:56.646Z,31.00
2022-08-03T17:35:34.323Z,31.00
2022-08-03T17:38:06.610Z,30.90
2022-08-03T17:40:35.779Z,30.80
2022-08-03T17:44:13.168Z,30.70
2022-08-03T17:45:52.882Z,30.50
2022-08-03T17:48:25.076Z,30.40
2022-08-03T17:50:59.898Z,30.40
2022-08-03T17:53:38.165Z,30.30
2022-08-03T17:56:44.913Z,30.30
2022-08-03T17:59:52.090Z,30.40
2022-08-03T18:02:48.107Z,30.30
2022-08-03T18:05:17.568Z,30.10
2022-08-03T18:08:01.674Z,30.00
2022-08-03T18:10:34.955Z,29.90
2022-08-03T18:13:10.558Z,29.80
2022-08-03T18:15:46.563Z,29.60
2022-08-03T18:18:16.880Z,29.50
2022-08-03T18:21:06.817Z,29.40
2022-08-03T18:23:37.852Z,29.30
2022-08-03T18:26:11.961Z,29.20
2022-08-03T18:28:40.595Z,29.00
2022-08-03T18:31:11.612Z,28.80
2022-08-03T18:36:29.960Z,28.50
2022-08-03T18:38:59.345Z,28.50
2022-08-03T18:41:33.204Z,28.30
2022-08-03T18:44:06.666Z,28.20
2022-08-03T18:46:49.159Z,28.00
2022-08-03T18:49:53.923Z,27.80
2022-08-03T18:52:29.089Z,27.70
2022-08-03T18:55:32.794Z,27.60
2022-08-03T18:58:17.963Z,27.40
2022-08-03T19:00:57.521Z,27.20
2022-08-03T19:03:43.434Z,27.00
2022-08-03T19:06:19.953Z,26.80
2022-08-03T19:09:00.940Z,26.80
2022-08-03T19:12:14.279Z,26.70
2022-08-03T19:14:53.345Z,26.60
2022-08-03T19:17:22.022Z,26.40
2022-08-03T19:20:01.572Z,26.30
2022-08-03T19:22:28.811Z,26.20
2022-08-03T19:24:59.610Z,26.10
2022-08-03T19:27:28.266Z,25.90
2022-08-03T19:30:01.070Z,25.70
2022-08-03T19:32:31.809Z,25.40
2022-08-03T19:35:01.063Z,25.40
2022-08-03T19:37:38.434Z,25.20
2022-08-03T19:40:10.783Z,25.10
2022-08-03T19:42:42.816Z,24.80
2022-08-03T19:45:14.701Z,24.80
2022-08-03T19:48:06.766Z,24.70
2022-08-03T19:50:37.514Z,24.60
2022-08-03T19:53:12.724Z,24.50
2022-08-03T19:55:48.976Z,24.40
2022-08-03T19:58:24.486Z,24.40
2022-08-03T20:00:55.740Z,24.20
2022-08-03T20:06:23.235Z,23.90
2022-08-03T20:08:51.715Z,23.90
2022-08-03T20:11:19.929Z,23.70
2022-08-03T20:13:49.726Z,23.50
2022-08-03T20:16:16.425Z,23.50
2022-08-03T20:18:43.192Z,23.60
2022-08-03T20:21:14.965Z,23.50
2022-08-03T20:24:01.874Z,23.50
2022-08-03T20:26:30.501Z,23.40
2022-08-03T20:29:09.907Z,23.30
2022-08-03T20:31:37.528Z,23.30
2022-08-03T20:34:06.069Z,23.10
2022-08-03T20:36:32.953Z,23.00
2022-08-03T20:38:59.814Z,23.00
2022-08-03T20:41:26.757Z,22.80
2022-08-03T20:43:53.415Z,22.80
2022-08-03T20:46:32.745Z,22.70
2022-08-03T20:49:04.317Z,22.60
2022-08-03T20:54:31.242Z,22.60
2022-08-03T20:57:03.466Z,22.50
2022-08-03T20:59:47.687Z,22.20
2022-08-03T21:02:29.183Z,22.10
2022-08-03T21:04:58.017Z,22.00
2022-08-03T21:08:05.853Z,21.90
2022-08-03T21:10:16.735Z,21.80
2022-08-03T21:13:03.418Z,24.10
2022-08-03T21:13:03.971Z,28.70
2022-08-03T21:13:12.080Z,21.90
2022-08-03T21:13:13.010Z,22.60
2022-08-03T21:16:11.708Z,21.90
2022-08-03T21:18:31.269Z,21.80
2022-08-03T21:21:01.026Z,21.80
2022-08-03T21:23:37.076Z,21.80
2022-08-03T21:26:17.553Z,21.70
2022-08-03T21:28:46.828Z,21.50
2022-08-03T21:31:14.840Z,21.50
2022-08-03T21:34:02.818Z,21.50
2022-08-03T21:36:32.819Z,21.60
2022-08-03T21:39:01.240Z,21.60
2022-08-03T21:41:32.348Z,21.50
2022-08-03T21:44:01.215Z,21.40
2022-08-03T21:46:35.979Z,21.30
2022-08-03T21:50:04.877Z,21.30
2022-08-03T21:51:56.567Z,21.10
2022-08-03T21:54:32.225Z,21.10
2022-08-03T21:57:05.014Z,21.00
2022-08-03T21:59:38.050Z,21.00
2022-08-03T22:02:06.419Z,21.00
2022-08-03T22:04:55.354Z,21.00
2022-08-03T22:07:24.502Z,21.00
2022-08-03T22:09:52.558Z,20.90
2022-08-03T22:12:24.378Z,20.80
2022-08-03T22:14:59.972Z,20.80
2022-08-03T22:17:55.757Z,20.60
2022-08-03T22:20:15.307Z,20.40
2022-08-03T22:22:44.864Z,20.30
2022-08-03T22:25:29.181Z,20.40
2022-08-03T22:27:57.821Z,20.40
2022-08-03T22:30:24.701Z,20.40
2022-08-03T22:32:54.369Z,20.40
2022-08-03T22:35:23.640Z,20.30
2022-08-03T22:37:53.834Z,20.20
2022-08-03T22:40:20.766Z,20.30
2022-08-03T22:42:50.639Z,20.20
2022-08-03T22:46:06.817Z,20.10
2022-08-03T22:48:08.004Z,19.90
2022-08-03T22:50:35.475Z,19.90
2022-08-03T22:53:02.614Z,19.90
2022-08-03T22:55:29.390Z,20.00
2022-08-03T22:57:56.548Z,19.90
2022-08-03T23:00:24.020Z,19.90
2022-08-03T23:02:51.825Z,19.90
2022-08-03T23:06:02.366Z,19.80
2022-08-03T23:08:14.262Z,19.80
2022-08-03T23:10:46.834Z,19.70
2022-08-03T23:13:16.605Z,19.70
2022-08-03T23:15:51.406Z,19.50
2022-08-03T23:18:20.800Z,19.50
2022-08-03T23:20:51.683Z,19.50
2022-08-03T23:23:20.645Z,19.60
2022-08-03T23:25:49.382Z,19.50
2022-08-03T23:28:18.849Z,19.30
2022-08-03T23:30:47.433Z,19.20
2022-08-03T23:33:16.296Z,19.20
2022-08-03T23:36:27.977Z,19.20
2022-08-03T23:38:47.497Z,19.30
2022-08-03T23:41:16.517Z,19.30
2022-08-03T23:43:51.881Z,19.20
2022-08-03T23:46:22.099Z,19.20
2022-08-03T23:48:49.503Z,19.10
2022-08-03T23:51:27.802Z,19.10
2022-08-03T23:54:02.718Z,19.10
2022-08-03T23:56:51.114Z,19.10
2022-08-03T23:59:30.069Z,19.10
